sensor_id;sensor_type;location;lat;lon;timestamp;P1;durP1;ratioP1;P2;durP2;ratioP2
22768;SDS011;13001;51.968;5.918;2023-07-30T00:01:54;151.40;;;140.28;;
22768;SDS011;13001;51.968;5.918;2023-07-30T00:04:22;163.32;;;150.80;;
22768;SDS011;13001;51.968;5.918;2023-07-30T00:06:49;178.15;;;164.77;;
22768;SDS011;13001;51.968;5.918;2023-07-30T00:09:17;185.10;;;171.35;;
22768;SDS011;13001;51.968;5.918;2023-07-30T00:11:44;174.25;;;161.18;;
22768;SDS011;13001;51.968;5.918;2023-07-30T00:14:11;184.37;;;170.90;;
22768;SDS011;13001;51.968;5.918;2023-07-30T00:16:38;209.20;;;194.15;;
22768;SDS011;13001;51.968;5.918;2023-07-30T00:19:06;225.33;;;209.40;;
22768;SDS011;13001;51.968;5.918;2023-07-30T00:21:33;234.43;;;217.97;;
22768;SDS011;13001;51.968;5.918;2023-07-30T00:24:00;251.05;;;233.68;;
22768;SDS011;13001;51.968;5.918;2023-07-30T00:26:27;251.37;;;234.05;;
22768;SDS011;13001;51.968;5.918;2023-07-30T00:28:56;267.57;;;248.87;;
22768;SDS011;13001;51.968;5.918;2023-07-30T00:31:23;273.83;;;255.30;;
22768;SDS011;13001;51.968;5.918;2023-07-30T00:33:50;276.70;;;258.05;;
22768;SDS011;13001;51.968;5.918;2023-07-30T00:36:18;261.60;;;243.63;;
22768;SDS011;13001;51.968;5.918;2023-07-30T00:38:45;287.77;;;268.30;;
22768;SDS011;13001;51.968;5.918;2023-07-30T00:41:12;287.12;;;267.77;;
22768;SDS011;13001;51.968;5.918;2023-07-30T00:43:39;288.70;;;269.50;;
22768;SDS011;13001;51.968;5.918;2023-07-30T00:46:07;319.25;;;298.10;;
22768;SDS011;13001;51.968;5.918;2023-07-30T00:48:35;323.00;;;301.37;;
22768;SDS011;13001;51.968;5.918;2023-07-30T00:51:02;311.02;;;290.43;;
22768;SDS011;13001;51.968;5.918;2023-07-30T00:53:30;310.50;;;290.12;;
22768;SDS011;13001;51.968;5.918;2023-07-30T00:55:57;305.37;;;284.92;;
22768;SDS011;13001;51.968;5.918;2023-07-30T00:58:24;296.60;;;276.87;;
22768;SDS011;13001;51.968;5.918;2023-07-30T01:00:52;322.60;;;301.50;;
22768;SDS011;13001;51.968;5.918;2023-07-30T01:03:20;308.23;;;287.70;;
22768;SDS011;13001;51.968;5.918;2023-07-30T01:05:47;294.35;;;274.65;;
22768;SDS011;13001;51.968;5.918;2023-07-30T01:08:15;296.20;;;276.58;;
22768;SDS011;13001;51.968;5.918;2023-07-30T01:10:42;288.18;;;269.13;;
22768;SDS011;13001;51.968;5.918;2023-07-30T01:13:12;291.75;;;272.52;;
22768;SDS011;13001;51.968;5.918;2023-07-30T01:15:41;288.02;;;268.50;;
22768;SDS011;13001;51.968;5.918;2023-07-30T01:18:10;277.48;;;258.80;;
22768;SDS011;13001;51.968;5.918;2023-07-30T01:20:37;297.85;;;277.48;;
22768;SDS011;13001;51.968;5.918;2023-07-30T01:23:04;279.82;;;261.25;;
22768;SDS011;13001;51.968;5.918;2023-07-30T01:25:33;274.35;;;255.77;;
22768;SDS011;13001;51.968;5.918;2023-07-30T01:30:47;267.57;;;249.22;;
22768;SDS011;13001;51.968;5.918;2023-07-30T01:33:15;260.15;;;242.60;;
22768;SDS011;13001;51.968;5.918;2023-07-30T01:35:42;253.02;;;235.48;;
22768;SDS011;13001;51.968;5.918;2023-07-30T01:38:09;259.85;;;242.35;;
22768;SDS011;13001;51.968;5.918;2023-07-30T01:40:37;246.82;;;229.93;;
22768;SDS011;13001;51.968;5.918;2023-07-30T01:43:04;259.27;;;241.30;;
22768;SDS011;13001;51.968;5.918;2023-07-30T01:45:32;260.77;;;243.12;;
22768;SDS011;13001;51.968;5.918;2023-07-30T01:48:00;238.80;;;222.20;;
22768;SDS011;13001;51.968;5.918;2023-07-30T01:50:28;232.90;;;216.50;;
22768;SDS011;13001;51.968;5.918;2023-07-30T01:52:56;243.78;;;227.05;;
22768;SDS011;13001;51.968;5.918;2023-07-30T01:55:23;251.52;;;234.15;;
22768;SDS011;13001;51.968;5.918;2023-07-30T01:57:50;230.15;;;214.15;;
22768;SDS011;13001;51.968;5.918;2023-07-30T02:00:18;243.17;;;226.35;;
22768;SDS011;13001;51.968;5.918;2023-07-30T02:02:45;247.80;;;230.65;;
22768;SDS011;13001;51.968;5.918;2023-07-30T02:05:13;259.15;;;241.40;;
22768;SDS011;13001;51.968;5.918;2023-07-30T02:07:42;232.90;;;216.65;;
22768;SDS011;13001;51.968;5.918;2023-07-30T02:10:09;236.55;;;220.10;;
22768;SDS011;13001;51.968;5.918;2023-07-30T02:12:38;260.73;;;242.70;;
22768;SDS011;13001;51.968;5.918;2023-07-30T02:15:05;262.00;;;243.75;;
22768;SDS011;13001;51.968;5.918;2023-07-30T02:17:33;261.40;;;243.63;;
22768;SDS011;13001;51.968;5.918;2023-07-30T02:20:00;266.08;;;248.10;;
22768;SDS011;13001;51.968;5.918;2023-07-30T02:22:27;282.45;;;263.27;;
22768;SDS011;13001;51.968;5.918;2023-07-30T02:24:55;274.75;;;256.00;;
22768;SDS011;13001;51.968;5.918;2023-07-30T02:27:23;258.03;;;240.23;;
22768;SDS011;13001;51.968;5.918;2023-07-30T02:29:50;268.10;;;249.50;;
22768;SDS011;13001;51.968;5.918;2023-07-30T02:32:17;259.15;;;241.25;;
22768;SDS011;13001;51.968;5.918;2023-07-30T02:34:45;277.87;;;259.07;;
22768;SDS011;13001;51.968;5.918;2023-07-30T02:37:12;282.92;;;263.73;;
22768;SDS011;13001;51.968;5.918;2023-07-30T02:39:39;267.65;;;249.22;;
22768;SDS011;13001;51.968;5.918;2023-07-30T02:42:07;257.62;;;239.70;;
22768;SDS011;13001;51.968;5.918;2023-07-30T02:44:34;273.00;;;254.23;;
22768;SDS011;13001;51.968;5.918;2023-07-30T02:47:02;264.00;;;245.25;;
22768;SDS011;13001;51.968;5.918;2023-07-30T02:49:29;269.13;;;250.60;;
22768;SDS011;13001;51.968;5.918;2023-07-30T02:51:56;266.33;;;247.93;;
22768;SDS011;13001;51.968;5.918;2023-07-30T02:54:23;250.47;;;233.35;;
22768;SDS011;13001;51.968;5.918;2023-07-30T02:56:51;255.32;;;237.88;;
22768;SDS011;13001;51.968;5.918;2023-07-30T02:59:18;224.05;;;208.20;;
22768;SDS011;13001;51.968;5.918;2023-07-30T03:01:45;252.00;;;234.22;;
22768;SDS011;13001;51.968;5.918;2023-07-30T03:04:12;269.67;;;250.97;;
22768;SDS011;13001;51.968;5.918;2023-07-30T03:06:40;245.35;;;228.32;;
22768;SDS011;13001;51.968;5.918;2023-07-30T03:09:07;264.93;;;247.10;;
22768;SDS011;13001;51.968;5.918;2023-07-30T03:11:34;233.20;;;216.93;;
22768;SDS011;13001;51.968;5.918;2023-07-30T03:14:02;226.65;;;210.48;;
22768;SDS011;13001;51.968;5.918;2023-07-30T03:16:29;205.67;;;191.13;;
22768;SDS011;13001;51.968;5.918;2023-07-30T03:18:56;196.63;;;182.53;;
22768;SDS011;13001;51.968;5.918;2023-07-30T03:21:23;212.10;;;196.63;;
22768;SDS011;13001;51.968;5.918;2023-07-30T03:23:52;190.43;;;176.55;;
22768;SDS011;13001;51.968;5.918;2023-07-30T03:26:19;191.28;;;177.20;;
22768;SDS011;13001;51.968;5.918;2023-07-30T03:28:46;204.45;;;189.75;;
22768;SDS011;13001;51.968;5.918;2023-07-30T03:31:14;188.30;;;174.83;;
22768;SDS011;13001;51.968;5.918;2023-07-30T03:33:41;196.95;;;182.25;;
22768;SDS011;13001;51.968;5.918;2023-07-30T03:36:12;176.57;;;163.32;;
22768;SDS011;13001;51.968;5.918;2023-07-30T03:38:40;191.20;;;176.90;;
22768;SDS011;13001;51.968;5.918;2023-07-30T03:41:08;179.95;;;166.40;;
22768;SDS011;13001;51.968;5.918;2023-07-30T03:43:37;191.47;;;177.73;;
22768;SDS011;13001;51.968;5.918;2023-07-30T03:46:04;187.92;;;174.00;;
22768;SDS011;13001;51.968;5.918;2023-07-30T03:48:31;177.97;;;164.57;;
22768;SDS011;13001;51.968;5.918;2023-07-30T03:50:59;182.72;;;169.15;;
22768;SDS011;13001;51.968;5.918;2023-07-30T03:53:27;170.57;;;157.82;;
22768;SDS011;13001;51.968;5.918;2023-07-30T03:55:54;170.07;;;157.57;;
22768;SDS011;13001;51.968;5.918;2023-07-30T03:58:21;180.57;;;167.03;;
22768;SDS011;13001;51.968;5.918;2023-07-30T04:00:48;160.25;;;148.25;;
22768;SDS011;13001;51.968;5.918;2023-07-30T04:03:16;189.43;;;175.50;;
22768;SDS011;13001;51.968;5.918;2023-07-30T04:05:43;155.40;;;143.93;;
22768;SDS011;13001;51.968;5.918;2023-07-30T04:08:10;166.20;;;153.85;;
22768;SDS011;13001;51.968;5.918;2023-07-30T04:10:38;151.30;;;139.65;;
22768;SDS011;13001;51.968;5.918;2023-07-30T04:13:05;163.50;;;151.05;;
22768;SDS011;13001;51.968;5.918;2023-07-30T04:15:34;147.60;;;136.55;;
22768;SDS011;13001;51.968;5.918;2023-07-30T04:18:01;148.02;;;137.00;;
22768;SDS011;13001;51.968;5.918;2023-07-30T04:20:28;147.60;;;136.47;;
22768;SDS011;13001;51.968;5.918;2023-07-30T04:22:56;147.53;;;136.83;;
22768;SDS011;13001;51.968;5.918;2023-07-30T04:25:24;139.00;;;128.47;;
22768;SDS011;13001;51.968;5.918;2023-07-30T04:27:52;134.15;;;124.42;;
22768;SDS011;13001;51.968;5.918;2023-07-30T04:30:19;138.47;;;127.92;;
22768;SDS011;13001;51.968;5.918;2023-07-30T04:32:46;142.13;;;131.50;;
22768;SDS011;13001;51.968;5.918;2023-07-30T04:35:13;132.90;;;123.10;;
22768;SDS011;13001;51.968;5.918;2023-07-30T04:37:41;140.45;;;130.15;;
22768;SDS011;13001;51.968;5.918;2023-07-30T04:40:08;133.15;;;123.25;;
22768;SDS011;13001;51.968;5.918;2023-07-30T04:42:35;130.90;;;120.97;;
22768;SDS011;13001;51.968;5.918;2023-07-30T04:45:03;138.20;;;127.87;;
22768;SDS011;13001;51.968;5.918;2023-07-30T04:47:30;145.60;;;134.70;;
22768;SDS011;13001;51.968;5.918;2023-07-30T04:49:57;127.30;;;117.65;;
22768;SDS011;13001;51.968;5.918;2023-07-30T04:52:24;136.22;;;125.85;;
22768;SDS011;13001;51.968;5.918;2023-07-30T04:54:52;123.87;;;114.77;;
22768;SDS011;13001;51.968;5.918;2023-07-30T04:57:19;130.32;;;120.62;;
22768;SDS011;13001;51.968;5.918;2023-07-30T04:59:46;128.47;;;118.67;;
22768;SDS011;13001;51.968;5.918;2023-07-30T05:02:13;140.47;;;129.73;;
22768;SDS011;13001;51.968;5.918;2023-07-30T05:04:41;128.47;;;118.63;;
22768;SDS011;13001;51.968;5.918;2023-07-30T05:07:10;139.97;;;129.47;;
22768;SDS011;13001;51.968;5.918;2023-07-30T05:09:37;142.60;;;131.93;;
22768;SDS011;13001;51.968;5.918;2023-07-30T05:12:04;146.50;;;135.80;;
22768;SDS011;13001;51.968;5.918;2023-07-30T05:14:33;151.68;;;140.28;;
22768;SDS011;13001;51.968;5.918;2023-07-30T05:17:00;161.88;;;149.80;;
22768;SDS011;13001;51.968;5.918;2023-07-30T05:19:29;174.57;;;161.22;;
22768;SDS011;13001;51.968;5.918;2023-07-30T05:21:56;184.78;;;171.10;;
22768;SDS011;13001;51.968;5.918;2023-07-30T05:24:23;207.35;;;191.85;;
22768;SDS011;13001;51.968;5.918;2023-07-30T05:26:50;211.85;;;195.92;;
22768;SDS011;13001;51.968;5.918;2023-07-30T05:29:18;226.95;;;210.43;;
22768;SDS011;13001;51.968;5.918;2023-07-30T05:31:45;228.35;;;211.97;;
22768;SDS011;13001;51.968;5.918;2023-07-30T05:34:12;223.60;;;207.43;;
22768;SDS011;13001;51.968;5.918;2023-07-30T05:36:39;217.17;;;201.60;;
22768;SDS011;13001;51.968;5.918;2023-07-30T05:39:07;244.47;;;226.75;;
22768;SDS011;13001;51.968;5.918;2023-07-30T05:41:34;213.52;;;199.00;;
22768;SDS011;13001;51.968;5.918;2023-07-30T05:44:01;225.00;;;210.50;;
22768;SDS011;13001;51.968;5.918;2023-07-30T05:46:29;226.90;;;212.60;;
22768;SDS011;13001;51.968;5.918;2023-07-30T05:48:56;224.53;;;210.50;;
22768;SDS011;13001;51.968;5.918;2023-07-30T05:51:23;223.33;;;209.17;;
22768;SDS011;13001;51.968;5.918;2023-07-30T05:53:50;212.27;;;199.10;;
22768;SDS011;13001;51.968;5.918;2023-07-30T05:56:18;222.13;;;207.90;;
22768;SDS011;13001;51.968;5.918;2023-07-30T05:58:47;238.23;;;223.57;;
22768;SDS011;13001;51.968;5.918;2023-07-30T06:01:14;263.23;;;246.03;;
22768;SDS011;13001;51.968;5.918;2023-07-30T06:03:41;263.93;;;247.70;;
22768;SDS011;13001;51.968;5.918;2023-07-30T06:06:08;263.17;;;246.87;;
22768;SDS011;13001;51.968;5.918;2023-07-30T06:08:36;285.23;;;267.43;;
22768;SDS011;13001;51.968;5.918;2023-07-30T06:11:03;309.10;;;288.47;;
22768;SDS011;13001;51.968;5.918;2023-07-30T06:13:30;306.30;;;286.95;;
22768;SDS011;13001;51.968;5.918;2023-07-30T06:15:57;294.37;;;275.67;;
22768;SDS011;13001;51.968;5.918;2023-07-30T06:18:25;261.27;;;244.77;;
22768;SDS011;13001;51.968;5.918;2023-07-30T06:20:52;299.97;;;280.93;;
22768;SDS011;13001;51.968;5.918;2023-07-30T06:23:19;284.00;;;266.00;;
22768;SDS011;13001;51.968;5.918;2023-07-30T06:25:46;294.93;;;275.63;;
22768;SDS011;13001;51.968;5.918;2023-07-30T06:28:14;270.40;;;253.20;;
22768;SDS011;13001;51.968;5.918;2023-07-30T06:30:41;259.77;;;243.77;;
22768;SDS011;13001;51.968;5.918;2023-07-30T06:33:08;264.30;;;248.03;;
22768;SDS011;13001;51.968;5.918;2023-07-30T06:35:35;268.80;;;251.97;;
22768;SDS011;13001;51.968;5.918;2023-07-30T06:38:03;267.93;;;251.00;;
22768;SDS011;13001;51.968;5.918;2023-07-30T06:40:30;254.57;;;238.73;;
22768;SDS011;13001;51.968;5.918;2023-07-30T06:42:57;265.37;;;249.00;;
22768;SDS011;13001;51.968;5.918;2023-07-30T06:45:24;245.07;;;229.97;;
22768;SDS011;13001;51.968;5.918;2023-07-30T06:47:52;249.27;;;234.13;;
22768;SDS011;13001;51.968;5.918;2023-07-30T06:50:19;263.25;;;245.88;;
22768;SDS011;13001;51.968;5.918;2023-07-30T06:52:46;294.60;;;275.80;;
22768;SDS011;13001;51.968;5.918;2023-07-30T06:55:14;463.60;;;433.10;;
22768;SDS011;13001;51.968;5.918;2023-07-30T06:57:41;436.32;;;406.37;;
22768;SDS011;13001;51.968;5.918;2023-07-30T07:00:09;302.57;;;283.50;;
22768;SDS011;13001;51.968;5.918;2023-07-30T07:02:36;292.00;;;273.20;;
22768;SDS011;13001;51.968;5.918;2023-07-30T07:05:04;261.37;;;244.60;;
22768;SDS011;13001;51.968;5.918;2023-07-30T07:07:31;213.10;;;199.50;;
22768;SDS011;13001;51.968;5.918;2023-07-30T07:09:58;230.25;;;215.50;;
22768;SDS011;13001;51.968;5.918;2023-07-30T07:12:26;225.15;;;211.00;;
22768;SDS011;13001;51.968;5.918;2023-07-30T07:14:53;233.93;;;219.22;;
22768;SDS011;13001;51.968;5.918;2023-07-30T07:17:22;208.95;;;195.28;;
22768;SDS011;13001;51.968;5.918;2023-07-30T07:19:49;180.22;;;168.25;;
22768;SDS011;13001;51.968;5.918;2023-07-30T07:22:16;268.13;;;251.10;;
22768;SDS011;13001;51.968;5.918;2023-07-30T07:24:45;337.27;;;314.32;;
22768;SDS011;13001;51.968;5.918;2023-07-30T07:27:13;358.60;;;334.87;;
22768;SDS011;13001;51.968;5.918;2023-07-30T07:29:41;445.43;;;415.13;;
22768;SDS011;13001;51.968;5.918;2023-07-30T07:32:08;435.67;;;407.57;;
22768;SDS011;13001;51.968;5.918;2023-07-30T07:34:35;365.37;;;342.30;;
22768;SDS011;13001;51.968;5.918;2023-07-30T07:37:02;221.85;;;207.27;;
22768;SDS011;13001;51.968;5.918;2023-07-30T07:39:30;186.88;;;175.20;;
22768;SDS011;13001;51.968;5.918;2023-07-30T07:41:57;210.97;;;198.05;;
22768;SDS011;13001;51.968;5.918;2023-07-30T07:44:24;272.42;;;255.85;;
22768;SDS011;13001;51.968;5.918;2023-07-30T07:46:51;271.27;;;254.78;;
22768;SDS011;13001;51.968;5.918;2023-07-30T07:49:19;135.50;;;127.00;;
22768;SDS011;13001;51.968;5.918;2023-07-30T07:51:46;85.35;;;79.75;;
22768;SDS011;13001;51.968;5.918;2023-07-30T07:54:13;73.93;;;69.20;;
22768;SDS011;13001;51.968;5.918;2023-07-30T07:56:41;86.63;;;81.20;;
22768;SDS011;13001;51.968;5.918;2023-07-30T07:59:08;122.15;;;114.75;;
22768;SDS011;13001;51.968;5.918;2023-07-30T08:01:38;187.37;;;175.80;;
22768;SDS011;13001;51.968;5.918;2023-07-30T08:04:08;214.25;;;201.02;;
22768;SDS011;13001;51.968;5.918;2023-07-30T08:06:36;350.73;;;329.60;;
22768;SDS011;13001;51.968;5.918;2023-07-30T08:09:03;433.35;;;405.52;;
22768;SDS011;13001;51.968;5.918;2023-07-30T08:11:31;470.17;;;439.47;;
22768;SDS011;13001;51.968;5.918;2023-07-30T08:13:58;469.17;;;438.33;;
22768;SDS011;13001;51.968;5.918;2023-07-30T08:16:25;359.77;;;337.02;;
22768;SDS011;13001;51.968;5.918;2023-07-30T08:18:53;318.88;;;299.05;;
22768;SDS011;13001;51.968;5.918;2023-07-30T08:21:21;251.65;;;235.35;;
22768;SDS011;13001;51.968;5.918;2023-07-30T08:23:48;341.40;;;320.00;;
22768;SDS011;13001;51.968;5.918;2023-07-30T08:26:15;352.13;;;330.27;;
22768;SDS011;13001;51.968;5.918;2023-07-30T08:28:43;221.87;;;207.83;;
22768;SDS011;13001;51.968;5.918;2023-07-30T08:31:11;147.47;;;138.07;;
22768;SDS011;13001;51.968;5.918;2023-07-30T08:33:38;124.65;;;116.95;;
22768;SDS011;13001;51.968;5.918;2023-07-30T08:36:06;212.57;;;199.83;;
22768;SDS011;13001;51.968;5.918;2023-07-30T08:38:33;197.40;;;185.67;;
22768;SDS011;13001;51.968;5.918;2023-07-30T08:41:00;376.07;;;353.02;;
22768;SDS011;13001;51.968;5.918;2023-07-30T08:43:28;428.65;;;401.93;;
22768;SDS011;13001;51.968;5.918;2023-07-30T08:45:55;431.60;;;404.92;;
22768;SDS011;13001;51.968;5.918;2023-07-30T08:48:22;447.80;;;419.93;;
22768;SDS011;13001;51.968;5.918;2023-07-30T08:50:50;432.38;;;405.93;;
22768;SDS011;13001;51.968;5.918;2023-07-30T08:53:17;415.12;;;389.87;;
22768;SDS011;13001;51.968;5.918;2023-07-30T08:55:44;361.98;;;340.60;;
22768;SDS011;13001;51.968;5.918;2023-07-30T08:58:12;253.58;;;238.55;;
22768;SDS011;13001;51.968;5.918;2023-07-30T09:00:39;262.52;;;247.07;;
22768;SDS011;13001;51.968;5.918;2023-07-30T09:03:08;188.20;;;177.10;;
22768;SDS011;13001;51.968;5.918;2023-07-30T09:05:35;205.47;;;193.27;;
22768;SDS011;13001;51.968;5.918;2023-07-30T09:08:03;230.50;;;217.13;;
22768;SDS011;13001;51.968;5.918;2023-07-30T09:10:31;316.70;;;298.70;;
22768;SDS011;13001;51.968;5.918;2023-07-30T09:12:58;453.08;;;425.85;;
22768;SDS011;13001;51.968;5.918;2023-07-30T09:15:29;462.55;;;434.52;;
22768;SDS011;13001;51.968;5.918;2023-07-30T09:17:59;468.50;;;440.40;;
22768;SDS011;13001;51.968;5.918;2023-07-30T09:20:27;413.60;;;389.27;;
22768;SDS011;13001;51.968;5.918;2023-07-30T09:22:57;387.98;;;365.43;;
22768;SDS011;13001;51.968;5.918;2023-07-30T09:25:25;401.70;;;377.90;;
22768;SDS011;13001;51.968;5.918;2023-07-30T09:27:52;362.30;;;340.82;;
22768;SDS011;13001;51.968;5.918;2023-07-30T09:30:23;330.90;;;311.85;;
22768;SDS011;13001;51.968;5.918;2023-07-30T09:32:57;376.02;;;354.20;;
22768;SDS011;13001;51.968;5.918;2023-07-30T09:35:25;220.55;;;207.70;;
22768;SDS011;13001;51.968;5.918;2023-07-30T09:38:02;192.28;;;181.10;;
22768;SDS011;13001;51.968;5.918;2023-07-30T09:40:30;155.90;;;146.30;;
22768;SDS011;13001;51.968;5.918;2023-07-30T09:42:51;57.62;;;53.73;;
22768;SDS011;13001;51.968;5.918;2023-07-30T09:45:22;25.82;;;23.70;;
22768;SDS011;13001;51.968;5.918;2023-07-30T09:47:50;44.90;;;41.90;;
22768;SDS011;13001;51.968;5.918;2023-07-30T09:50:17;63.30;;;58.83;;
22768;SDS011;13001;51.968;5.918;2023-07-30T09:52:45;43.85;;;40.90;;
22768;SDS011;13001;51.968;5.918;2023-07-30T09:55:12;58.93;;;55.03;;
22768;SDS011;13001;51.968;5.918;2023-07-30T09:57:40;51.00;;;47.88;;
22768;SDS011;13001;51.968;5.918;2023-07-30T10:00:07;47.17;;;44.33;;
22768;SDS011;13001;51.968;5.918;2023-07-30T10:02:38;49.18;;;46.15;;
22768;SDS011;13001;51.968;5.918;2023-07-30T10:05:15;41.95;;;39.38;;
22768;SDS011;13001;51.968;5.918;2023-07-30T10:07:35;97.45;;;91.42;;
22768;SDS011;13001;51.968;5.918;2023-07-30T10:10:02;118.30;;;111.40;;
22768;SDS011;13001;51.968;5.918;2023-07-30T10:12:31;84.92;;;79.90;;
22768;SDS011;13001;51.968;5.918;2023-07-30T10:15:00;88.50;;;82.88;;
22768;SDS011;13001;51.968;5.918;2023-07-30T10:17:28;75.08;;;69.92;;
22768;SDS011;13001;51.968;5.918;2023-07-30T10:19:55;112.62;;;105.78;;
22768;SDS011;13001;51.968;5.918;2023-07-30T10:22:23;164.43;;;154.15;;
22768;SDS011;13001;51.968;5.918;2023-07-30T10:25:02;190.90;;;179.30;;
22768;SDS011;13001;51.968;5.918;2023-07-30T10:27:39;265.30;;;249.82;;
22768;SDS011;13001;51.968;5.918;2023-07-30T10:30:16;222.50;;;209.23;;
22768;SDS011;13001;51.968;5.918;2023-07-30T10:33:01;194.45;;;182.65;;
22768;SDS011;13001;51.968;5.918;2023-07-30T10:35:51;226.88;;;212.78;;
22768;SDS011;13001;51.968;5.918;2023-07-30T10:37:56;298.52;;;279.57;;
22768;SDS011;13001;51.968;5.918;2023-07-30T10:40:23;266.12;;;249.88;;
22768;SDS011;13001;51.968;5.918;2023-07-30T10:42:50;236.90;;;222.73;;
22768;SDS011;13001;51.968;5.918;2023-07-30T10:45:18;180.52;;;169.22;;
22768;SDS011;13001;51.968;5.918;2023-07-30T10:47:45;194.85;;;183.25;;
22768;SDS011;13001;51.968;5.918;2023-07-30T10:50:12;149.57;;;140.62;;
22768;SDS011;13001;51.968;5.918;2023-07-30T10:52:41;137.97;;;129.97;;
22768;SDS011;13001;51.968;5.918;2023-07-30T10:55:08;171.55;;;161.35;;
22768;SDS011;13001;51.968;5.918;2023-07-30T10:57:35;168.82;;;158.63;;
22768;SDS011;13001;51.968;5.918;2023-07-30T11:00:05;186.57;;;175.32;;
22768;SDS011;13001;51.968;5.918;2023-07-30T11:02:33;160.32;;;150.70;;
22768;SDS011;13001;51.968;5.918;2023-07-30T11:05:10;148.83;;;139.53;;
22768;SDS011;13001;51.968;5.918;2023-07-30T11:07:29;145.97;;;137.47;;
22768;SDS011;13001;51.968;5.918;2023-07-30T11:09:59;133.30;;;125.65;;
22768;SDS011;13001;51.968;5.918;2023-07-30T11:12:28;94.28;;;88.70;;
22768;SDS011;13001;51.968;5.918;2023-07-30T11:15:02;98.45;;;92.75;;
22768;SDS011;13001;51.968;5.918;2023-07-30T11:17:30;147.87;;;139.28;;
22768;SDS011;13001;51.968;5.918;2023-07-30T11:19:57;108.52;;;102.32;;
22768;SDS011;13001;51.968;5.918;2023-07-30T11:22:30;85.35;;;80.42;;
22768;SDS011;13001;51.968;5.918;2023-07-30T11:24:58;102.60;;;96.57;;
22768;SDS011;13001;51.968;5.918;2023-07-30T11:27:27;68.92;;;64.60;;
22768;SDS011;13001;51.968;5.918;2023-07-30T11:29:55;55.73;;;52.13;;
22768;SDS011;13001;51.968;5.918;2023-07-30T11:32:22;42.03;;;39.58;;
22768;SDS011;13001;51.968;5.918;2023-07-30T11:34:53;78.75;;;73.78;;
22768;SDS011;13001;51.968;5.918;2023-07-30T11:37:20;62.43;;;58.67;;
22768;SDS011;13001;51.968;5.918;2023-07-30T11:39:48;73.10;;;68.85;;
22768;SDS011;13001;51.968;5.918;2023-07-30T11:42:16;65.22;;;61.40;;
22768;SDS011;13001;51.968;5.918;2023-07-30T11:44:43;89.62;;;84.45;;
22768;SDS011;13001;51.968;5.918;2023-07-30T11:47:10;81.65;;;76.85;;
22768;SDS011;13001;51.968;5.918;2023-07-30T11:49:38;39.38;;;36.77;;
22768;SDS011;13001;51.968;5.918;2023-07-30T11:52:08;44.90;;;42.27;;
22768;SDS011;13001;51.968;5.918;2023-07-30T11:54:37;45.98;;;43.38;;
22768;SDS011;13001;51.968;5.918;2023-07-30T11:57:05;48.52;;;45.67;;
22768;SDS011;13001;51.968;5.918;2023-07-30T11:59:32;53.13;;;50.03;;
22768;SDS011;13001;51.968;5.918;2023-07-30T12:01:59;48.35;;;45.12;;
22768;SDS011;13001;51.968;5.918;2023-07-30T12:04:30;58.95;;;55.30;;
22768;SDS011;13001;51.968;5.918;2023-07-30T12:06:55;82.17;;;77.43;;
22768;SDS011;13001;51.968;5.918;2023-07-30T12:09:23;126.67;;;118.90;;
22768;SDS011;13001;51.968;5.918;2023-07-30T12:11:56;181.17;;;170.57;;
22768;SDS011;13001;51.968;5.918;2023-07-30T12:14:42;202.03;;;189.80;;
22768;SDS011;13001;51.968;5.918;2023-07-30T12:16:59;180.70;;;170.07;;
22768;SDS011;13001;51.968;5.918;2023-07-30T12:19:29;160.23;;;150.83;;
22768;SDS011;13001;51.968;5.918;2023-07-30T12:21:57;158.55;;;149.05;;
22768;SDS011;13001;51.968;5.918;2023-07-30T12:24:25;166.05;;;155.82;;
22768;SDS011;13001;51.968;5.918;2023-07-30T12:26:52;121.42;;;114.22;;
22768;SDS011;13001;51.968;5.918;2023-07-30T12:29:19;145.50;;;136.87;;
22768;SDS011;13001;51.968;5.918;2023-07-30T12:31:48;148.78;;;140.12;;
22768;SDS011;13001;51.968;5.918;2023-07-30T12:34:16;161.95;;;152.30;;
22768;SDS011;13001;51.968;5.918;2023-07-30T12:36:44;158.85;;;149.15;;
22768;SDS011;13001;51.968;5.918;2023-07-30T12:39:11;158.18;;;149.07;;
22768;SDS011;13001;51.968;5.918;2023-07-30T12:41:38;173.50;;;163.25;;
22768;SDS011;13001;51.968;5.918;2023-07-30T12:44:06;154.55;;;145.47;;
22768;SDS011;13001;51.968;5.918;2023-07-30T12:46:33;138.28;;;130.10;;
22768;SDS011;13001;51.968;5.918;2023-07-30T12:49:00;137.65;;;129.60;;
22768;SDS011;13001;51.968;5.918;2023-07-30T12:51:31;131.60;;;123.95;;
22768;SDS011;13001;51.968;5.918;2023-07-30T12:53:58;134.52;;;126.78;;
22768;SDS011;13001;51.968;5.918;2023-07-30T12:56:26;156.32;;;147.10;;
22768;SDS011;13001;51.968;5.918;2023-07-30T12:58:55;165.70;;;155.90;;
22768;SDS011;13001;51.968;5.918;2023-07-30T13:01:23;159.55;;;150.07;;
22768;SDS011;13001;51.968;5.918;2023-07-30T13:03:51;155.45;;;146.05;;
22768;SDS011;13001;51.968;5.918;2023-07-30T13:06:20;179.40;;;168.75;;
22768;SDS011;13001;51.968;5.918;2023-07-30T13:08:48;164.80;;;155.10;;
22768;SDS011;13001;51.968;5.918;2023-07-30T13:11:15;167.13;;;157.27;;
22768;SDS011;13001;51.968;5.918;2023-07-30T13:13:45;161.75;;;152.25;;
22768;SDS011;13001;51.968;5.918;2023-07-30T13:16:14;153.38;;;144.37;;
22768;SDS011;13001;51.968;5.918;2023-07-30T13:18:41;156.65;;;147.32;;
22768;SDS011;13001;51.968;5.918;2023-07-30T13:21:08;177.68;;;167.15;;
22768;SDS011;13001;51.968;5.918;2023-07-30T13:23:37;129.07;;;121.50;;
22768;SDS011;13001;51.968;5.918;2023-07-30T13:26:06;140.97;;;132.97;;
22768;SDS011;13001;51.968;5.918;2023-07-30T13:28:35;133.75;;;126.00;;
22768;SDS011;13001;51.968;5.918;2023-07-30T13:31:02;129.50;;;122.10;;
22768;SDS011;13001;51.968;5.918;2023-07-30T13:33:29;131.85;;;124.27;;
22768;SDS011;13001;51.968;5.918;2023-07-30T13:35:57;163.15;;;153.68;;
22768;SDS011;13001;51.968;5.918;2023-07-30T13:38:25;178.75;;;168.15;;
22768;SDS011;13001;51.968;5.918;2023-07-30T13:40:53;190.57;;;179.10;;
22768;SDS011;13001;51.968;5.918;2023-07-30T13:43:20;186.50;;;175.38;;
22768;SDS011;13001;51.968;5.918;2023-07-30T13:45:48;183.95;;;173.25;;
22768;SDS011;13001;51.968;5.918;2023-07-30T13:48:16;168.93;;;159.30;;
22768;SDS011;13001;51.968;5.918;2023-07-30T13:50:47;167.40;;;157.70;;
22768;SDS011;13001;51.968;5.918;2023-07-30T13:53:14;176.43;;;166.30;;
22768;SDS011;13001;51.968;5.918;2023-07-30T13:55:41;173.03;;;163.07;;
22768;SDS011;13001;51.968;5.918;2023-07-30T13:58:10;182.07;;;171.47;;
22768;SDS011;13001;51.968;5.918;2023-07-30T14:00:39;180.40;;;169.72;;
22768;SDS011;13001;51.968;5.918;2023-07-30T14:03:06;181.37;;;170.55;;
22768;SDS011;13001;51.968;5.918;2023-07-30T14:05:35;133.55;;;125.75;;